sensor_id;sensor_type;location;lat;lon;timestamp;pressure;altitude;pressure_sealevel;temperature;humidity
67697;BME280;54486;51.442;6.778;2023-05-01T00:00:58;101530.53;;;11.31;73.82
67697;BME280;54486;51.442;6.778;2023-05-01T00:03:27;101524.44;;;11.26;74.32
67697;BME280;54486;51.442;6.778;2023-05-01T00:06:02;101527.03;;;11.26;73.15
67697;BME280;54486;51.442;6.778;2023-05-01T00:08:31;101517.44;;;11.23;74.66
67697;BME280;54486;51.442;6.778;2023-05-01T00:11:02;101516.59;;;11.20;73.44
67697;BME280;54486;51.442;6.778;2023-05-01T00:13:30;101515.69;;;11.18;74.08
67697;BME280;54486;51.442;6.778;2023-05-01T00:15:57;101513.06;;;11.14;75.29
67697;BME280;54486;51.442;6.778;2023-05-01T00:18:25;101515.69;;;11.08;75.39
67697;BME280;54486;51.442;6.778;2023-05-01T00:20:52;101506.97;;;11.03;75.97
67697;BME280;54486;51.442;6.778;2023-05-01T00:23:19;101498.22;;;10.95;76.54
67697;BME280;54486;51.442;6.778;2023-05-01T00:25:46;101507.78;;;10.95;76.25
67697;BME280;54486;51.442;6.778;2023-05-01T00:28:13;101505.19;;;10.90;77.15
67697;BME280;54486;51.442;6.778;2023-05-01T00:30:40;101493.84;;;10.85;77.39
67697;BME280;54486;51.442;6.778;2023-05-01T00:33:08;101495.59;;;10.80;78.15
67697;BME280;54486;51.442;6.778;2023-05-01T00:35:36;101493.84;;;10.75;77.06
67697;BME280;54486;51.442;6.778;2023-05-01T00:38:03;101496.41;;;10.73;77.19
67697;BME280;54486;51.442;6.778;2023-05-01T00:40:30;101484.22;;;10.69;77.74
67697;BME280;54486;51.442;6.778;2023-05-01T00:42:57;101486.81;;;10.69;79.33
67697;BME280;54486;51.442;6.778;2023-05-01T00:45:24;101482.47;;;10.63;78.74
67697;BME280;54486;51.442;6.778;2023-05-01T00:47:51;101485.94;;;10.61;79.22
67697;BME280;54486;51.442;6.778;2023-05-01T00:50:18;101477.25;;;10.59;78.98
67697;BME280;54486;51.442;6.778;2023-05-01T00:52:45;101470.25;;;10.56;79.89
67697;BME280;54486;51.442;6.778;2023-05-01T00:55:12;101477.25;;;10.56;79.89
67697;BME280;54486;51.442;6.778;2023-05-01T00:57:40;101468.50;;;10.54;79.55
67697;BME280;54486;51.442;6.778;2023-05-01T01:00:08;101472.84;;;10.49;80.78
67697;BME280;54486;51.442;6.778;2023-05-01T01:02:39;101469.31;;;10.41;81.07
67697;BME280;54486;51.442;6.778;2023-05-01T01:05:07;101459.72;;;10.31;80.58
67697;BME280;54486;51.442;6.778;2023-05-01T01:12:49;101447.41;;;10.11;82.48
67697;BME280;54486;51.442;6.778;2023-05-01T01:15:34;101449.16;;;10.09;83.29
67697;BME280;54486;51.442;6.778;2023-05-01T01:20:48;101441.28;;;10.02;84.18
67697;BME280;54486;51.442;6.778;2023-05-01T01:26:23;101441.25;;;9.97;84.98
67697;BME280;54486;51.442;6.778;2023-05-01T01:35:17;101433.44;;;9.94;86.10
67697;BME280;54486;51.442;6.778;2023-05-01T01:41:10;101429.91;;;9.89;85.85
67697;BME280;54486;51.442;6.778;2023-05-01T01:43:42;101422.97;;;9.91;86.70
67697;BME280;54486;51.442;6.778;2023-05-01T01:46:15;101431.69;;;9.93;85.83
67697;BME280;54486;51.442;6.778;2023-05-01T01:48:45;101423.00;;;9.97;85.52
67697;BME280;54486;51.442;6.778;2023-05-01T01:51:17;101423.03;;;10.00;86.59
67697;BME280;54486;51.442;6.778;2023-05-01T01:53:50;101414.34;;;10.01;87.05
67697;BME280;54486;51.442;6.778;2023-05-01T01:56:20;101413.47;;;10.05;86.26
67697;BME280;54486;51.442;6.778;2023-05-01T01:58:50;101415.28;;;10.11;86.13
67697;BME280;54486;51.442;6.778;2023-05-01T02:01:19;101402.28;;;10.16;86.75
67697;BME280;54486;51.442;6.778;2023-05-01T02:03:48;101400.56;;;10.18;86.91
67697;BME280;54486;51.442;6.778;2023-05-01T02:06:16;101400.56;;;10.21;86.39
67697;BME280;54486;51.442;6.778;2023-05-01T02:08:45;101393.63;;;10.26;86.47
67697;BME280;54486;51.442;6.778;2023-05-01T02:11:18;101391.03;;;10.27;86.22
67697;BME280;54486;51.442;6.778;2023-05-01T02:13:48;101390.19;;;10.33;85.67
67697;BME280;54486;51.442;6.778;2023-05-01T02:16:20;101386.66;;;10.31;86.05
67697;BME280;54486;51.442;6.778;2023-05-01T02:18:49;101384.06;;;10.31;85.41
67697;BME280;54486;51.442;6.778;2023-05-01T02:21:19;101381.44;;;10.31;85.66
67697;BME280;54486;51.442;6.778;2023-05-01T02:23:47;101381.50;;;10.34;85.33
67697;BME280;54486;51.442;6.778;2023-05-01T02:26:17;101367.56;;;10.32;86.01
67697;BME280;54486;51.442;6.778;2023-05-01T02:28:44;101370.16;;;10.32;84.99
67697;BME280;54486;51.442;6.778;2023-05-01T02:31:11;101371.91;;;10.33;85.95
67697;BME280;54486;51.442;6.778;2023-05-01T02:33:41;101364.09;;;10.33;85.84
67697;BME280;54486;51.442;6.778;2023-05-01T02:36:09;101360.63;;;10.34;85.69
67697;BME280;54486;51.442;6.778;2023-05-01T02:38:36;101358.88;;;10.36;85.33
67697;BME280;54486;51.442;6.778;2023-05-01T02:41:03;101360.63;;;10.35;84.90
67697;BME280;54486;51.442;6.778;2023-05-01T02:43:31;101353.66;;;10.36;84.94
67697;BME280;54486;51.442;6.778;2023-05-01T02:46:01;101346.69;;;10.35;85.81
67697;BME280;54486;51.442;6.778;2023-05-01T02:48:30;101346.69;;;10.35;85.95
67697;BME280;54486;51.442;6.778;2023-05-01T02:51:00;101339.75;;;10.34;84.88
67697;BME280;54486;51.442;6.778;2023-05-01T02:53:29;101344.94;;;10.31;84.35
67697;BME280;54486;51.442;6.778;2023-05-01T02:55:56;101339.72;;;10.28;85.45
67697;BME280;54486;51.442;6.778;2023-05-01T02:58:23;101342.31;;;10.28;85.54
67697;BME280;54486;51.442;6.778;2023-05-01T03:00:50;101341.47;;;10.26;86.14
67697;BME280;54486;51.442;6.778;2023-05-01T03:03:17;101338.00;;;10.24;86.46
67697;BME280;54486;51.442;6.778;2023-05-01T03:05:45;101332.75;;;10.18;86.96
67697;BME280;54486;51.442;6.778;2023-05-01T03:08:14;101331.00;;;10.17;86.81
67697;BME280;54486;51.442;6.778;2023-05-01T03:10:41;101322.31;;;10.15;86.93
67697;BME280;54486;51.442;6.778;2023-05-01T03:13:09;101325.78;;;10.14;86.91
67697;BME280;54486;51.442;6.778;2023-05-01T03:15:37;101323.13;;;10.12;86.89
67697;BME280;54486;51.442;6.778;2023-05-01T03:18:06;101317.91;;;10.10;87.19
67697;BME280;54486;51.442;6.778;2023-05-01T03:20:32;101317.03;;;10.08;88.14
67697;BME280;54486;51.442;6.778;2023-05-01T03:23:00;101315.31;;;10.07;87.96
67697;BME280;54486;51.442;6.778;2023-05-01T03:25:27;101315.28;;;10.04;88.51
67697;BME280;54486;51.442;6.778;2023-05-01T03:27:54;101320.50;;;10.04;87.56
67697;BME280;54486;51.442;6.778;2023-05-01T03:30:21;101307.47;;;10.04;87.56
67697;BME280;54486;51.442;6.778;2023-05-01T03:32:49;101300.53;;;10.05;87.57
67697;BME280;54486;51.442;6.778;2023-05-01T03:35:17;101304.88;;;10.04;87.60
67697;BME280;54486;51.442;6.778;2023-05-01T03:37:44;101291.81;;;10.03;87.05
67697;BME280;54486;51.442;6.778;2023-05-01T03:40:13;101290.94;;;10.02;87.08
67697;BME280;54486;51.442;6.778;2023-05-01T03:42:40;101288.31;;;10.02;87.08
67697;BME280;54486;51.442;6.778;2023-05-01T03:45:07;101289.19;;;9.98;88.50
67697;BME280;54486;51.442;6.778;2023-05-01T03:47:35;101292.66;;;9.94;88.96
67697;BME280;54486;51.442;6.778;2023-05-01T03:50:03;101281.31;;;9.89;89.56
67697;BME280;54486;51.442;6.778;2023-05-01T03:52:31;101280.47;;;9.87;89.72
67697;BME280;54486;51.442;6.778;2023-05-01T03:54:58;101283.06;;;9.84;90.07
67697;BME280;54486;51.442;6.778;2023-05-01T03:57:25;101284.81;;;9.82;89.96
67697;BME280;54486;51.442;6.778;2023-05-01T03:59:53;101280.44;;;9.84;90.08
67697;BME280;54486;51.442;6.778;2023-05-01T04:02:20;101281.31;;;9.83;90.09
67697;BME280;54486;51.442;6.778;2023-05-01T04:04:47;101276.97;;;9.81;90.57
67697;BME280;54486;51.442;6.778;2023-05-01T04:07:14;101287.41;;;9.79;90.27
67697;BME280;54486;51.442;6.778;2023-05-01T04:09:42;101275.22;;;9.78;89.98
67697;BME280;54486;51.442;6.778;2023-05-01T04:12:09;101282.16;;;9.76;90.06
67697;BME280;54486;51.442;6.778;2023-05-01T04:14:36;101275.19;;;9.72;90.61
67697;BME280;54486;51.442;6.778;2023-05-01T04:17:03;101280.41;;;9.72;90.66
67697;BME280;54486;51.442;6.778;2023-05-01T04:19:30;101280.41;;;9.69;91.58
67697;BME280;54486;51.442;6.778;2023-05-01T04:21:57;101276.03;;;9.68;91.28
67697;BME280;54486;51.442;6.778;2023-05-01T04:24:24;101275.19;;;9.66;91.23
67697;BME280;54486;51.442;6.778;2023-05-01T04:26:52;101273.44;;;9.68;91.47
67697;BME280;54486;51.442;6.778;2023-05-01T04:29:19;101265.59;;;9.65;92.01
67697;BME280;54486;51.442;6.778;2023-05-01T04:31:46;101269.97;;;9.66;91.37
67697;BME280;54486;51.442;6.778;2023-05-01T04:34:13;101261.25;;;9.67;91.68
67697;BME280;54486;51.442;6.778;2023-05-01T04:36:40;101269.97;;;9.69;92.08
67697;BME280;54486;51.442;6.778;2023-05-01T04:39:07;101266.50;;;9.72;91.38
67697;BME280;54486;51.442;6.778;2023-05-01T04:41:34;101259.56;;;9.75;92.26
67697;BME280;54486;51.442;6.778;2023-05-01T04:44:01;101259.59;;;9.78;92.10
67697;BME280;54486;51.442;6.778;2023-05-01T04:46:29;101266.53;;;9.79;91.99
67697;BME280;54486;51.442;6.778;2023-05-01T04:48:57;101266.56;;;9.82;91.72
67697;BME280;54486;51.442;6.778;2023-05-01T04:51:24;101260.47;;;9.85;91.59
67697;BME280;54486;51.442;6.778;2023-05-01T04:53:50;101264.84;;;9.89;91.95
67697;BME280;54486;51.442;6.778;2023-05-01T04:56:18;101268.31;;;9.92;92.01
67697;BME280;54486;51.442;6.778;2023-05-01T04:58:45;101262.22;;;9.93;91.98
67697;BME280;54486;51.442;6.778;2023-05-01T05:01:12;101270.06;;;9.96;91.91
67697;BME280;54486;51.442;6.778;2023-05-01T05:03:39;101266.59;;;10.00;91.60
67697;BME280;54486;51.442;6.778;2023-05-01T05:06:06;101264.88;;;10.05;92.34
67697;BME280;54486;51.442;6.778;2023-05-01T05:08:33;101261.41;;;10.09;92.04
67697;BME280;54486;51.442;6.778;2023-05-01T05:11:01;101257.06;;;10.11;92.32
67697;BME280;54486;51.442;6.778;2023-05-01T05:13:28;101270.16;;;10.18;92.70
67697;BME280;54486;51.442;6.778;2023-05-01T05:15:55;101264.97;;;10.21;92.07
67697;BME280;54486;51.442;6.778;2023-05-01T05:18:23;101274.53;;;10.26;91.65
67697;BME280;54486;51.442;6.778;2023-05-01T05:20:50;101264.97;;;10.33;90.73
67697;BME280;54486;51.442;6.778;2023-05-01T05:23:18;101269.34;;;10.40;90.54
67697;BME280;54486;51.442;6.778;2023-05-01T05:25:45;101264.13;;;10.46;88.98
67697;BME280;54486;51.442;6.778;2023-05-01T05:28:12;101268.47;;;10.56;89.43
67697;BME280;54486;51.442;6.778;2023-05-01T05:30:39;101268.47;;;10.62;88.16
67697;BME280;54486;51.442;6.778;2023-05-01T05:33:07;101270.19;;;10.69;88.16
67697;BME280;54486;51.442;6.778;2023-05-01T05:35:34;101263.25;;;10.77;88.64
67697;BME280;54486;51.442;6.778;2023-05-01T05:38:02;101268.47;;;10.86;90.24
67697;BME280;54486;51.442;6.778;2023-05-01T05:40:29;101263.22;;;10.92;89.22
67697;BME280;54486;51.442;6.778;2023-05-01T05:42:56;101263.22;;;11.01;87.43
67697;BME280;54486;51.442;6.778;2023-05-01T05:45:23;101265.81;;;11.10;86.42
67697;BME280;54486;51.442;6.778;2023-05-01T05:47:50;101259.69;;;11.21;85.32
67697;BME280;54486;51.442;6.778;2023-05-01T05:50:17;101257.97;;;11.29;86.80
67697;BME280;54486;51.442;6.778;2023-05-01T05:52:44;101259.69;;;11.39;86.36
67697;BME280;54486;51.442;6.778;2023-05-01T05:55:11;101259.63;;;11.48;85.88
67697;BME280;54486;51.442;6.778;2023-05-01T05:57:39;101264.84;;;11.57;84.56
67697;BME280;54486;51.442;6.778;2023-05-01T06:00:06;101263.03;;;11.65;84.84
67697;BME280;54486;51.442;6.778;2023-05-01T06:02:35;101253.47;;;11.72;85.21
67697;BME280;54486;51.442;6.778;2023-05-01T06:05:03;101256.06;;;11.79;85.78
67697;BME280;54486;51.442;6.778;2023-05-01T06:07:30;101257.75;;;11.88;87.40
67697;BME280;54486;51.442;6.778;2023-05-01T06:09:57;101260.34;;;11.95;84.92
67697;BME280;54486;51.442;6.778;2023-05-01T06:12:31;101262.91;;;12.04;85.25
67697;BME280;54486;51.442;6.778;2023-05-01T06:15:02;101262.84;;;12.13;85.02
67697;BME280;54486;51.442;6.778;2023-05-01T06:17:29;101265.41;;;12.21;83.86
67697;BME280;54486;51.442;6.778;2023-05-01T06:19:57;101265.34;;;12.29;84.00
67697;BME280;54486;51.442;6.778;2023-05-01T06:22:24;101264.44;;;12.36;83.22
67697;BME280;54486;51.442;6.778;2023-05-01T06:24:51;101262.66;;;12.44;81.71
67697;BME280;54486;51.442;6.778;2023-05-01T06:27:18;101259.09;;;12.51;80.58
67697;BME280;54486;51.442;6.778;2023-05-01T06:29:45;101262.53;;;12.59;80.45
67697;BME280;54486;51.442;6.778;2023-05-01T06:32:13;101255.50;;;12.64;80.97
67697;BME280;54486;51.442;6.778;2023-05-01T06:34:39;101256.31;;;12.70;80.17
67697;BME280;54486;51.442;6.778;2023-05-01T06:37:06;101258.88;;;12.78;82.48
67697;BME280;54486;51.442;6.778;2023-05-01T06:39:33;101261.44;;;12.84;81.50
67697;BME280;54486;51.442;6.778;2023-05-01T06:42:01;101250.03;;;12.91;80.83
67697;BME280;54486;51.442;6.778;2023-05-01T06:44:29;101250.81;;;12.99;80.17
67697;BME280;54486;51.442;6.778;2023-05-01T06:46:58;101244.63;;;13.09;79.26
67697;BME280;54486;51.442;6.778;2023-05-01T06:49:27;101251.53;;;13.19;78.71
67697;BME280;54486;51.442;6.778;2023-05-01T06:51:55;101244.44;;;13.27;77.14
67697;BME280;54486;51.442;6.778;2023-05-01T06:54:22;101246.06;;;13.39;72.70
67697;BME280;54486;51.442;6.778;2023-05-01T06:56:48;101244.19;;;13.52;71.30
67697;BME280;54486;51.442;6.778;2023-05-01T06:59:17;101238.81;;;13.59;69.50
67697;BME280;54486;51.442;6.778;2023-05-01T07:01:44;101242.19;;;13.69;68.23
67697;BME280;54486;51.442;6.778;2023-05-01T07:04:11;101249.06;;;13.79;67.47
67697;BME280;54486;51.442;6.778;2023-05-01T07:06:38;101248.09;;;13.86;67.24
67697;BME280;54486;51.442;6.778;2023-05-01T07:09:05;101246.22;;;13.96;66.94
67697;BME280;54486;51.442;6.778;2023-05-01T07:11:32;101247.84;;;14.06;66.29
67697;BME280;54486;51.442;6.778;2023-05-01T07:13:59;101245.94;;;14.15;66.66
67697;BME280;54486;51.442;6.778;2023-05-01T07:16:27;101246.66;;;14.26;66.25
67697;BME280;54486;51.442;6.778;2023-05-01T07:18:54;101246.50;;;14.39;65.15
67697;BME280;54486;51.442;6.778;2023-05-01T07:21:21;101234.94;;;14.49;64.54
67697;BME280;54486;51.442;6.778;2023-05-01T07:23:51;101240.91;;;14.60;65.38
67697;BME280;54486;51.442;6.778;2023-05-01T07:26:18;101238.97;;;14.71;64.70
67697;BME280;54486;51.442;6.778;2023-05-01T07:28:45;101242.28;;;14.82;63.65
67697;BME280;54486;51.442;6.778;2023-05-01T07:31:12;101240.38;;;14.90;63.03
67697;BME280;54486;51.442;6.778;2023-05-01T07:33:40;101234.94;;;15.01;63.03
67697;BME280;54486;51.442;6.778;2023-05-01T07:36:08;101231.25;;;15.12;62.26
67697;BME280;54486;51.442;6.778;2023-05-01T07:38:35;101233.66;;;15.23;61.75
67697;BME280;54486;51.442;6.778;2023-05-01T07:41:01;101234.34;;;15.32;62.16
67697;BME280;54486;51.442;6.778;2023-05-01T07:43:29;101228.00;;;15.43;62.05
67697;BME280;54486;51.442;6.778;2023-05-01T07:45:58;101233.97;;;15.54;61.38
67697;BME280;54486;51.442;6.778;2023-05-01T07:48:27;101225.16;;;15.55;59.99
67697;BME280;54486;51.442;6.778;2023-05-01T07:50:55;101226.75;;;15.62;59.68
67697;BME280;54486;51.442;6.778;2023-05-01T07:53:25;101234.59;;;15.65;60.18
67697;BME280;54486;51.442;6.778;2023-05-01T07:55:52;101225.88;;;15.63;58.24
67697;BME280;54486;51.442;6.778;2023-05-01T07:58:19;101223.19;;;15.66;58.16
67697;BME280;54486;51.442;6.778;2023-05-01T08:00:46;101228.38;;;15.69;58.17
67697;BME280;54486;51.442;6.778;2023-05-01T08:03:12;101218.66;;;15.72;58.12
67697;BME280;54486;51.442;6.778;2023-05-01T08:05:42;101221.16;;;15.77;58.37
67697;BME280;54486;51.442;6.778;2023-05-01T08:08:10;101221.94;;;15.82;56.55
67697;BME280;54486;51.442;6.778;2023-05-01T08:10:39;101220.13;;;15.84;56.00
67697;BME280;54486;51.442;6.778;2023-05-01T08:13:06;101225.34;;;15.87;58.48
67697;BME280;54486;51.442;6.778;2023-05-01T08:15:33;101222.69;;;15.87;57.34
67697;BME280;54486;51.442;6.778;2023-05-01T08:18:04;101227.81;;;15.93;57.15
67697;BME280;54486;51.442;6.778;2023-05-01T08:20:31;101234.69;;;16.00;57.25
67697;BME280;54486;51.442;6.778;2023-05-01T08:22:58;101218.00;;;16.01;57.37
67697;BME280;54486;51.442;6.778;2023-05-01T08:25:26;101227.69;;;15.99;56.61
67697;BME280;54486;51.442;6.778;2023-05-01T08:27:58;101224.03;;;16.06;56.82
67697;BME280;54486;51.442;6.778;2023-05-01T08:30:26;101223.88;;;16.12;55.93
67697;BME280;54486;51.442;6.778;2023-05-01T08:32:53;101227.28;;;16.17;55.06
67697;BME280;54486;51.442;6.778;2023-05-01T08:35:23;101218.47;;;16.18;55.17
67697;BME280;54486;51.442;6.778;2023-05-01T08:37:50;101225.41;;;16.22;55.59
67697;BME280;54486;51.442;6.778;2023-05-01T08:40:16;101229.66;;;16.28;55.73
67697;BME280;54486;51.442;6.778;2023-05-01T08:42:43;101230.38;;;16.34;57.51
67697;BME280;54486;51.442;6.778;2023-05-01T08:45:11;101224.97;;;16.40;55.11
67697;BME280;54486;51.442;6.778;2023-05-01T08:47:41;101225.69;;;16.47;54.81
67697;BME280;54486;51.442;6.778;2023-05-01T08:50:12;101220.31;;;16.52;54.46
67697;BME280;54486;51.442;6.778;2023-05-01T08:52:41;101217.56;;;16.58;54.37
67697;BME280;54486;51.442;6.778;2023-05-01T08:55:13;101221.72;;;16.66;54.02
67697;BME280;54486;51.442;6.778;2023-05-01T08:57:45;101222.59;;;16.67;55.36
67697;BME280;54486;51.442;6.778;2023-05-01T09:00:19;101221.56;;;16.72;54.31
67697;BME280;54486;51.442;6.778;2023-05-01T09:02:50;101212.66;;;16.78;55.15
67697;BME280;54486;51.442;6.778;2023-05-01T09:05:19;101211.56;;;16.85;54.64
67697;BME280;54486;51.442;6.778;2023-05-01T09:07:47;101212.41;;;16.87;53.07
67697;BME280;54486;51.442;6.778;2023-05-01T09:10:15;101213.22;;;16.89;53.29
67697;BME280;54486;51.442;6.778;2023-05-01T09:12:46;101218.34;;;16.95;53.43
67697;BME280;54486;51.442;6.778;2023-05-01T09:15:14;101210.34;;;16.98;53.09
67697;BME280;54486;51.442;6.778;2023-05-01T09:17:43;101212.72;;;17.07;54.19
67697;BME280;54486;51.442;6.778;2023-05-01T09:20:10;101209.03;;;17.14;54.27
67697;BME280;54486;51.442;6.778;2023-05-01T09:22:37;101202.56;;;17.26;53.25
67697;BME280;54486;51.442;6.778;2023-05-01T09:25:05;101210.31;;;17.30;53.16
67697;BME280;54486;51.442;6.778;2023-05-01T09:27:36;101214.25;;;17.48;52.09
67697;BME280;54486;51.442;6.778;2023-05-01T09:30:06;101210.41;;;17.60;53.51
67697;BME280;54486;51.442;6.778;2023-05-01T09:32:40;101213.41;;;17.77;54.54
67697;BME280;54486;51.442;6.778;2023-05-01T09:35:13;101212.28;;;17.84;50.83
67697;BME280;54486;51.442;6.778;2023-05-01T09:37:40;101204.94;;;17.95;51.22
67697;BME280;54486;51.442;6.778;2023-05-01T09:40:09;101207.91;;;18.12;52.40
67697;BME280;54486;51.442;6.778;2023-05-01T09:42:50;101202.16;;;18.27;53.34
67697;BME280;54486;51.442;6.778;2023-05-01T09:45:18;101203.38;;;18.43;51.79
67697;BME280;54486;51.442;6.778;2023-05-01T09:47:46;101203.19;;;18.49;49.94
67697;BME280;54486;51.442;6.778;2023-05-01T09:50:33;101208.50;;;18.49;48.69
67697;BME280;54486;51.442;6.778;2023-05-01T09:53:02;101201.03;;;18.34;48.67
67697;BME280;54486;51.442;6.778;2023-05-01T09:55:32;101202.25;;;18.24;49.00
67697;BME280;54486;51.442;6.778;2023-05-01T09:57:59;101209.41;;;18.21;49.48
67697;BME280;54486;51.442;6.778;2023-05-01T10:00:26;101209.44;;;18.19;49.76
67697;BME280;54486;51.442;6.778;2023-05-01T10:02:53;101205.59;;;18.29;49.99
67697;BME280;54486;51.442;6.778;2023-05-01T10:05:21;101203.47;;;18.40;50.59
67697;BME280;54486;51.442;6.778;2023-05-01T10:08:00;101198.28;;;18.37;48.18
67697;BME280;54486;51.442;6.778;2023-05-01T10:10:28;101197.34;;;18.38;48.33
67697;BME280;54486;51.442;6.778;2023-05-01T10:13:12;101196.44;;;18.39;49.58
67697;BME280;54486;51.442;6.778;2023-05-01T10:15:39;101206.44;;;18.58;50.40
67697;BME280;54486;51.442;6.778;2023-05-01T10:18:09;101207.53;;;18.77;49.79
67697;BME280;54486;51.442;6.778;2023-05-01T10:20:39;101197.59;;;18.59;48.26
67697;BME280;54486;51.442;6.778;2023-05-01T10:23:07;101204.53;;;18.63;49.33
67697;BME280;54486;51.442;6.778;2023-05-01T10:25:35;101203.41;;;18.70;48.65
67697;BME280;54486;51.442;6.778;2023-05-01T10:28:02;101209.59;;;18.69;49.43
67697;BME280;54486;51.442;6.778;2023-05-01T10:30:34;101199.38;;;18.84;50.45
67697;BME280;54486;51.442;6.778;2023-05-01T10:33:02;101203.34;;;18.96;50.03
67697;BME280;54486;51.442;6.778;2023-05-01T10:35:34;101191.59;;;19.05;50.67
67697;BME280;54486;51.442;6.778;2023-05-01T10:38:08;101184.22;;;19.14;49.02
67697;BME280;54486;51.442;6.778;2023-05-01T10:40:47;101186.63;;;19.20;49.85
67697;BME280;54486;51.442;6.778;2023-05-01T10:45:45;101190.97;;;18.98;48.68
67697;BME280;54486;51.442;6.778;2023-05-01T10:51:20;101178.75;;;18.94;49.22
67697;BME280;54486;51.442;6.778;2023-05-01T10:56:41;101181.97;;;19.02;49.72
67697;BME280;54486;51.442;6.778;2023-05-01T10:59:09;101178.41;;;19.03;48.90
67697;BME280;54486;51.442;6.778;2023-05-01T11:01:38;101167.63;;;19.09;49.76
67697;BME280;54486;51.442;6.778;2023-05-01T11:04:45;101173.16;;;19.26;50.79
67697;BME280;54486;51.442;6.778;2023-05-01T11:07:15;101173.53;;;19.40;49.04
67697;BME280;54486;51.442;6.778;2023-05-01T11:09:45;101160.66;;;19.54;50.67
67697;BME280;54486;51.442;6.778;2023-05-01T11:12:14;101170.13;;;19.60;48.73
67697;BME280;54486;51.442;6.778;2023-05-01T11:23:04;101158.34;;;19.69;47.64
67697;BME280;54486;51.442;6.778;2023-05-01T11:25:31;101163.03;;;19.84;46.32
67697;BME280;54486;51.442;6.778;2023-05-01T11:28:01;101159.44;;;19.85;46.76
67697;BME280;54486;51.442;6.778;2023-05-01T11:30:35;101154.03;;;19.88;46.78
67697;BME280;54486;51.442;6.778;2023-05-01T11:33:03;101158.13;;;19.96;45.73
67697;BME280;54486;51.442;6.778;2023-05-01T11:35:32;101154.09;;;20.08;45.98
67697;BME280;54486;51.442;6.778;2023-05-01T11:37:59;101148.25;;;20.22;46.83
67697;BME280;54486;51.442;6.778;2023-05-01T11:40:29;101140.72;;;20.33;44.57
67697;BME280;54486;51.442;6.778;2023-05-01T11:43:04;101146.66;;;20.39;43.78
67697;BME280;54486;51.442;6.778;2023-05-01T11:45:36;101139.91;;;20.32;43.97
67697;BME280;54486;51.442;6.778;2023-05-01T11:48:04;101143.81;;;20.22;43.04
67697;BME280;54486;51.442;6.778;2023-05-01T11:50:39;101138.66;;;20.19;44.14
67697;BME280;54486;51.442;6.778;2023-05-01T11:53:11;101136.66;;;20.24;44.49
67697;BME280;54486;51.442;6.778;2023-05-01T11:55:41;101135.66;;;20.28;42.90
67697;BME280;54486;51.442;6.778;2023-05-01T11:58:09;101133.91;;;20.27;43.49
67697;BME280;54486;51.442;6.778;2023-05-01T12:00:38;101132.75;;;20.34;43.40
67697;BME280;54486;51.442;6.778;2023-05-01T12:03:10;101132.34;;;20.43;44.76
67697;BME280;54486;51.442;6.778;2023-05-01T12:05:40;101123.22;;;20.50;43.18
67697;BME280;54486;51.442;6.778;2023-05-01T12:10:40;101131.63;;;20.60;42.65
67697;BME280;54486;51.442;6.778;2023-05-01T12:13:11;101130.84;;;20.58;40.87
67697;BME280;54486;51.442;6.778;2023-05-01T12:15:45;101126.91;;;20.46;41.04
67697;BME280;54486;51.442;6.778;2023-05-01T12:18:13;101122.34;;;20.50;41.96
67697;BME280;54486;51.442;6.778;2023-05-01T12:20:45;101117.25;;;20.66;42.96
67697;BME280;54486;51.442;6.778;2023-05-01T12:23:30;101116.41;;;20.84;43.57
67697;BME280;54486;51.442;6.778;2023-05-01T12:25:58;101122.91;;;20.97;44.58
67697;BME280;54486;51.442;6.778;2023-05-01T12:28:27;101119.53;;;20.93;42.22
67697;BME280;54486;51.442;6.778;2023-05-01T12:31:00;101125.19;;;20.86;42.26
67697;BME280;54486;51.442;6.778;2023-05-01T12:33:31;101117.88;;;20.91;44.23
67697;BME280;54486;51.442;6.778;2023-05-01T12:36:08;101114.72;;;20.83;41.99
67697;BME280;54486;51.442;6.778;2023-05-01T12:38:38;101111.13;;;20.84;42.34
67697;BME280;54486;51.442;6.778;2023-05-01T12:41:05;101111.78;;;20.69;42.39
67697;BME280;54486;51.442;6.778;2023-05-01T12:43:36;101107.03;;;20.77;42.12
67697;BME280;54486;51.442;6.778;2023-05-01T12:46:04;101105.63;;;20.88;41.19
67697;BME280;54486;51.442;6.778;2023-05-01T12:48:32;101099.97;;;20.96;41.05
67697;BME280;54486;51.442;6.778;2023-05-01T12:51:00;101101.41;;;21.03;40.99
67697;BME280;54486;51.442;6.778;2023-05-01T12:53:27;101096.34;;;20.78;42.14
67697;BME280;54486;51.442;6.778;2023-05-01T12:55:56;101105.50;;;20.71;42.64
67697;BME280;54486;51.442;6.778;2023-05-01T12:58:36;101099.88;;;20.58;43.51
67697;BME280;54486;51.442;6.778;2023-05-01T13:01:22;101096.88;;;20.66;44.02
67697;BME280;54486;51.442;6.778;2023-05-01T13:03:50;101094.88;;;20.71;43.75
67697;BME280;54486;51.442;6.778;2023-05-01T13:06:17;101107.47;;;21.25;42.77
67697;BME280;54486;51.442;6.778;2023-05-01T13:08:44;101102.59;;;21.91;41.03
67697;BME280;54486;51.442;6.778;2023-05-01T13:11:16;101100.72;;;21.93;37.88
67697;BME280;54486;51.442;6.778;2023-05-01T13:13:43;101098.59;;;22.70;38.30
67697;BME280;54486;51.442;6.778;2023-05-01T13:16:13;101099.59;;;23.17;34.79
67697;BME280;54486;51.442;6.778;2023-05-01T13:18:48;101091.06;;;23.59;32.95
67697;BME280;54486;51.442;6.778;2023-05-01T13:21:18;101102.50;;;23.77;32.09
67697;BME280;54486;51.442;6.778;2023-05-01T13:23:57;101099.47;;;24.14;33.36
67697;BME280;54486;51.442;6.778;2023-05-01T13:26:26;101096.06;;;24.56;32.65
67697;BME280;54486;51.442;6.778;2023-05-01T13:28:54;101090.78;;;24.40;32.41
67697;BME280;54486;51.442;6.778;2023-05-01T13:31:23;101102.59;;;23.44;32.97
67697;BME280;54486;51.442;6.778;2023-05-01T13:33:51;101100.31;;;22.71;33.61
67697;BME280;54486;51.442;6.778;2023-05-01T13:36:20;101092.56;;;22.32;34.08
67697;BME280;54486;51.442;6.778;2023-05-01T13:38:54;101097.16;;;21.94;36.12